createdAt,value
2022-11-15T00:00:09.499Z,49.10
2022-11-15T00:01:09.686Z,50.70
2022-11-15T00:02:09.890Z,49.10
2022-11-15T00:03:10.060Z,50.70
2022-11-15T00:04:10.267Z,49.90
2022-11-15T00:05:10.456Z,51.00
2022-11-15T00:06:10.640Z,50.00
2022-11-15T00:07:17.988Z,50.30
2022-11-15T00:08:12.009Z,51.30
2022-11-15T00:09:11.097Z,50.00
2022-11-15T00:10:11.285Z,49.40
2022-11-15T00:11:11.465Z,50.90
2022-11-15T00:12:11.649Z,50.90
2022-11-15T00:13:11.851Z,50.90
2022-11-15T00:14:12.028Z,50.50
2022-11-15T00:15:12.210Z,50.70
2022-11-15T00:16:12.399Z,50.60
2022-11-15T00:17:12.613Z,49.70
2022-11-15T00:18:12.791Z,51.60
2022-11-15T00:19:12.986Z,50.40
2022-11-15T00:20:13.175Z,50.50
2022-11-15T00:21:13.362Z,50.70
2022-11-15T00:22:13.572Z,50.00
2022-11-15T00:23:13.763Z,50.00
2022-11-15T00:24:13.956Z,50.40
2022-11-15T00:25:14.145Z,50.40
2022-11-15T00:26:14.325Z,50.70
2022-11-15T00:27:14.527Z,51.10
2022-11-15T00:28:14.730Z,50.60
2022-11-15T00:29:14.932Z,50.50
2022-11-15T00:30:15.116Z,50.60
2022-11-15T00:31:15.346Z,50.10
2022-11-15T00:32:15.446Z,51.20
2022-11-15T00:33:15.649Z,50.50
2022-11-15T00:34:15.842Z,50.10
2022-11-15T00:35:16.033Z,50.00
2022-11-15T00:36:16.228Z,50.20
2022-11-15T00:37:16.436Z,50.70
2022-11-15T00:38:16.633Z,50.40
2022-11-15T00:39:16.813Z,50.30
2022-11-15T00:40:17.019Z,51.50
2022-11-15T00:41:17.195Z,50.20
2022-11-15T00:42:17.400Z,50.60
2022-11-15T00:43:17.590Z,51.30
2022-11-15T00:44:17.766Z,52.30
2022-11-15T00:45:17.969Z,49.90
2022-11-15T00:46:18.159Z,50.40
2022-11-15T00:47:18.370Z,51.70
2022-11-15T00:48:18.559Z,51.10
2022-11-15T00:49:18.754Z,51.50
2022-11-15T00:50:18.950Z,51.50
2022-11-15T00:51:19.129Z,52.10
2022-11-15T00:52:19.334Z,50.90
2022-11-15T00:53:19.533Z,51.50
2022-11-15T00:54:19.731Z,51.60
2022-11-15T00:55:19.939Z,51.40
2022-11-15T00:56:20.128Z,51.40
2022-11-15T00:57:20.331Z,51.30
2022-11-15T00:58:20.531Z,51.30
2022-11-15T00:59:20.726Z,52.60
2022-11-15T01:00:20.920Z,52.00
2022-11-15T01:01:21.167Z,52.10
2022-11-15T01:02:21.225Z,53.00
2022-11-15T01:03:21.421Z,51.80
2022-11-15T01:04:21.605Z,52.10
2022-11-15T01:05:21.816Z,52.70
2022-11-15T01:06:22.004Z,50.70
2022-11-15T01:07:22.234Z,52.90
2022-11-15T01:08:22.337Z,53.00
2022-11-15T01:09:22.541Z,51.30
2022-11-15T01:10:22.748Z,51.20
2022-11-15T01:11:22.933Z,50.40
2022-11-15T01:12:23.128Z,52.00
2022-11-15T01:13:23.330Z,52.60
2022-11-15T01:14:25.530Z,51.30
2022-11-15T01:15:23.663Z,51.90
2022-11-15T01:16:23.752Z,52.50
2022-11-15T01:17:23.936Z,52.50
2022-11-15T01:18:24.147Z,51.60
2022-11-15T01:19:24.346Z,52.70
2022-11-15T01:20:24.546Z,52.10
2022-11-15T01:21:24.639Z,53.40
2022-11-15T01:22:24.841Z,53.50
2022-11-15T01:23:25.048Z,53.10
2022-11-15T01:24:25.259Z,51.70
2022-11-15T01:25:25.510Z,51.80
2022-11-15T01:26:25.592Z,52.60
2022-11-15T01:27:25.808Z,53.00
2022-11-15T01:28:25.910Z,52.20
2022-11-15T01:29:26.117Z,53.00
2022-11-15T01:30:26.336Z,52.40
2022-11-15T01:31:26.532Z,53.30
2022-11-15T01:32:26.728Z,53.80
2022-11-15T01:33:26.927Z,52.70
2022-11-15T01:34:27.122Z,52.60
2022-11-15T01:35:27.336Z,52.80
2022-11-15T01:36:27.414Z,52.80
2022-11-15T01:37:27.608Z,52.80
2022-11-15T01:38:27.807Z,54.20
2022-11-15T01:39:27.996Z,53.20
2022-11-15T01:40:28.224Z,53.30
2022-11-15T01:41:28.306Z,54.60
2022-11-15T01:42:28.532Z,53.60
2022-11-15T01:43:28.753Z,53.80
2022-11-15T01:44:28.773Z,53.90
2022-11-15T01:45:28.994Z,54.30
2022-11-15T01:46:29.184Z,54.50
2022-11-15T01:47:29.390Z,54.00
2022-11-15T01:48:29.580Z,54.10
2022-11-15T01:49:29.801Z,53.30
2022-11-15T01:50:30.009Z,53.70
2022-11-15T01:51:30.216Z,53.60
2022-11-15T01:52:30.399Z,53.90
2022-11-15T01:53:30.906Z,53.00
2022-11-15T01:54:30.808Z,54.40
2022-11-15T01:55:31.031Z,54.00
2022-11-15T01:56:31.112Z,52.30
2022-11-15T01:57:31.311Z,53.40
2022-11-15T01:58:31.507Z,54.20
2022-11-15T01:59:31.701Z,52.70
2022-11-15T02:00:32.044Z,53.30
2022-11-15T02:01:32.047Z,52.10
2022-11-15T02:02:32.247Z,51.80
2022-11-15T02:03:32.776Z,53.10
2022-11-15T02:04:32.657Z,53.60
2022-11-15T02:05:32.872Z,53.30
2022-11-15T02:06:33.063Z,54.10
2022-11-15T02:07:33.315Z,53.90
2022-11-15T02:08:33.389Z,54.40
2022-11-15T02:09:33.603Z,54.00
2022-11-15T02:10:33.818Z,52.90
2022-11-15T02:11:34.007Z,53.90
2022-11-15T02:12:34.195Z,53.40
2022-11-15T02:13:34.468Z,53.40
2022-11-15T02:14:34.550Z,54.30
2022-11-15T02:15:34.767Z,53.90
2022-11-15T02:16:34.960Z,55.00
2022-11-15T02:17:35.160Z,53.60
2022-11-15T02:18:35.361Z,54.80
2022-11-15T02:19:35.553Z,53.10
2022-11-15T02:20:35.763Z,53.50
2022-11-15T02:21:35.960Z,53.60
2022-11-15T02:22:36.066Z,53.00
2022-11-15T02:23:36.280Z,52.60
2022-11-15T02:24:36.472Z,52.10
2022-11-15T02:25:36.729Z,54.00
2022-11-15T02:26:36.816Z,52.20
2022-11-15T02:27:37.010Z,52.10
2022-11-15T02:28:37.213Z,52.90
2022-11-15T02:29:37.410Z,52.20
2022-11-15T02:30:37.625Z,52.40
2022-11-15T02:31:37.813Z,51.20
2022-11-15T02:32:38.009Z,52.20
2022-11-15T02:33:38.201Z,51.00
2022-11-15T02:34:38.399Z,51.80
2022-11-15T02:35:38.605Z,52.10
2022-11-15T02:36:38.796Z,51.60
2022-11-15T02:37:39.003Z,51.60
2022-11-15T02:38:39.203Z,50.00
2022-11-15T02:39:39.405Z,51.30
2022-11-15T02:40:39.625Z,51.30
2022-11-15T02:41:39.823Z,50.60
2022-11-15T02:42:40.024Z,50.40
2022-11-15T02:43:40.215Z,49.90
2022-11-15T02:44:40.405Z,50.70
2022-11-15T02:45:40.636Z,50.90
2022-11-15T02:46:40.824Z,50.60
2022-11-15T02:47:41.016Z,50.50
2022-11-15T02:48:41.215Z,50.30
2022-11-15T02:49:41.405Z,50.60
2022-11-15T02:50:41.625Z,50.40
2022-11-15T02:51:41.815Z,51.30
2022-11-15T02:52:42.014Z,51.10
2022-11-15T02:53:42.236Z,50.90
2022-11-15T02:54:42.413Z,51.10
2022-11-15T02:55:42.626Z,51.80
2022-11-15T02:56:42.826Z,51.90
2022-11-15T02:57:43.033Z,52.50
2022-11-15T02:58:43.215Z,52.60
2022-11-15T02:59:43.411Z,51.20
2022-11-15T03:00:43.721Z,52.20
2022-11-15T03:01:43.807Z,52.40
2022-11-15T03:02:44.022Z,52.10
2022-11-15T03:03:44.227Z,52.90
2022-11-15T03:04:44.428Z,53.60
2022-11-15T03:05:45.622Z,54.70
2022-11-15T03:06:44.866Z,53.80
2022-11-15T03:08:39.168Z,54.70
2022-11-15T03:09:39.378Z,55.00
2022-11-15T03:10:39.585Z,55.20
2022-11-15T03:11:39.805Z,55.90
2022-11-15T03:12:40.010Z,56.40
2022-11-15T03:13:40.225Z,55.80
2022-11-15T03:14:40.444Z,54.10
2022-11-15T03:15:40.548Z,54.90
2022-11-15T03:16:40.752Z,54.80
2022-11-15T03:17:40.948Z,54.10
2022-11-15T03:18:41.146Z,54.50
2022-11-15T03:19:41.357Z,55.00
2022-11-15T03:20:41.543Z,55.10
2022-11-15T03:21:41.789Z,55.60
2022-11-15T03:22:41.888Z,55.70
2022-11-15T03:23:42.109Z,56.30
2022-11-15T03:24:42.340Z,53.90
2022-11-15T03:25:42.429Z,55.20
2022-11-15T03:26:42.650Z,55.80
2022-11-15T03:27:42.752Z,55.10
2022-11-15T03:28:42.938Z,54.30
2022-11-15T03:29:43.143Z,54.20
2022-11-15T03:30:43.370Z,54.90
2022-11-15T03:31:49.631Z,54.80
2022-11-15T03:32:44.761Z,54.10
2022-11-15T03:33:43.984Z,53.70
2022-11-15T03:34:44.197Z,53.70
2022-11-15T03:35:44.303Z,53.00
2022-11-15T03:36:44.557Z,54.60
2022-11-15T03:37:44.826Z,53.70
2022-11-15T03:38:44.823Z,52.30
2022-11-15T03:39:45.037Z,53.50
2022-11-15T03:40:45.266Z,53.60
2022-11-15T03:41:45.502Z,54.30
2022-11-15T03:42:45.641Z,54.80
2022-11-15T03:43:45.749Z,53.70
2022-11-15T03:44:45.849Z,53.10
2022-11-15T03:45:46.060Z,53.60
2022-11-15T03:46:46.285Z,53.40
2022-11-15T03:47:46.394Z,54.20
2022-11-15T03:48:46.534Z,54.40
2022-11-15T03:49:46.647Z,54.90
2022-11-15T03:50:46.747Z,54.20
2022-11-15T03:51:46.868Z,55.20
2022-11-15T03:52:46.968Z,54.20
2022-11-15T03:53:47.172Z,54.80
2022-11-15T03:54:47.408Z,54.20
2022-11-15T03:55:47.515Z,52.80
2022-11-15T03:56:47.763Z,54.40
2022-11-15T03:57:47.907Z,54.10
2022-11-15T03:58:48.129Z,54.20
2022-11-15T03:59:48.236Z,54.50
2022-11-15T04:00:48.400Z,54.30
2022-11-15T04:01:48.525Z,53.10
2022-11-15T04:02:48.633Z,53.80
2022-11-15T04:03:48.744Z,55.60
2022-11-15T04:04:48.845Z,55.20
2022-11-15T04:05:48.984Z,55.40
2022-11-15T04:06:49.134Z,54.90
2022-11-15T04:07:49.267Z,55.10
2022-11-15T04:08:49.398Z,55.80
2022-11-15T04:09:49.624Z,54.70
2022-11-15T04:10:49.726Z,54.50
2022-11-15T04:11:49.965Z,53.80
2022-11-15T04:12:50.078Z,56.00
2022-11-15T04:13:50.180Z,54.00
2022-11-15T04:14:50.396Z,55.80
2022-11-15T04:15:50.613Z,54.10
2022-11-15T04:16:50.840Z,54.20
2022-11-15T04:17:50.940Z,54.40
2022-11-15T04:18:51.049Z,54.90
2022-11-15T04:19:51.393Z,55.60
2022-11-15T04:20:51.396Z,54.50
2022-11-15T04:21:51.634Z,54.40
2022-11-15T04:22:51.734Z,54.30
2022-11-15T04:23:51.974Z,54.10
2022-11-15T04:24:52.085Z,53.10
2022-11-15T04:25:52.222Z,53.80
2022-11-15T04:26:52.341Z,54.20
2022-11-15T04:27:52.442Z,53.60
2022-11-15T04:28:52.548Z,52.80
2022-11-15T04:29:52.764Z,53.60
2022-11-15T04:30:52.867Z,52.90
2022-11-15T04:31:53.117Z,53.40
2022-11-15T04:32:53.221Z,53.80
2022-11-15T04:33:53.521Z,53.90
2022-11-15T04:34:53.595Z,52.70
2022-11-15T04:35:53.699Z,52.30
2022-11-15T04:36:53.955Z,52.00
2022-11-15T04:37:54.138Z,50.60
2022-11-15T04:38:54.240Z,51.40
2022-11-15T04:39:54.465Z,51.30
2022-11-15T04:40:54.570Z,53.10
2022-11-15T04:41:54.699Z,52.50
2022-11-15T04:42:57.208Z,52.60
2022-11-15T04:43:55.976Z,52.50
2022-11-15T04:44:55.187Z,52.40
2022-11-15T04:45:55.295Z,52.60
2022-11-15T04:46:55.556Z,52.20
2022-11-15T04:47:55.666Z,52.60
2022-11-15T04:48:59.026Z,53.70
2022-11-15T04:49:55.929Z,52.40
2022-11-15T04:50:56.032Z,51.50
2022-11-15T04:51:56.180Z,51.60
2022-11-15T04:52:56.286Z,51.00
2022-11-15T04:53:56.522Z,51.80
2022-11-15T04:54:56.639Z,50.90
2022-11-15T04:55:56.756Z,50.20
2022-11-15T04:56:56.869Z,51.10
2022-11-15T04:57:56.979Z,51.20
2022-11-15T04:58:57.119Z,49.80
2022-11-15T04:59:57.217Z,51.40
2022-11-15T05:00:57.446Z,51.30
2022-11-15T05:01:57.545Z,51.30
2022-11-15T05:02:57.719Z,50.90
2022-11-15T05:03:57.906Z,51.80
2022-11-15T05:04:58.131Z,50.40
2022-11-15T05:05:58.305Z,51.30
2022-11-15T05:06:58.520Z,51.20
2022-11-15T05:07:58.635Z,51.80
2022-11-15T05:08:58.838Z,51.50
2022-11-15T05:09:59.086Z,51.50
2022-11-15T05:10:59.299Z,53.20
2022-11-15T05:11:59.412Z,53.30
2022-11-15T05:12:59.533Z,53.30
2022-11-15T05:13:59.667Z,52.90
2022-11-15T05:14:59.778Z,50.20
2022-11-15T05:15:59.908Z,51.20
2022-11-15T05:17:00.028Z,50.90
2022-11-15T05:18:00.233Z,50.60
2022-11-15T05:19:00.395Z,50.10
2022-11-15T05:20:00.502Z,51.20
2022-11-15T05:21:00.633Z,50.90
2022-11-15T05:22:00.762Z,51.50
2022-11-15T05:23:00.881Z,51.60
2022-11-15T05:24:01.001Z,51.50
2022-11-15T05:25:01.121Z,50.60
2022-11-15T05:26:05.055Z,50.70
2022-11-15T05:27:02.437Z,51.20
2022-11-15T05:28:01.865Z,51.60
2022-11-15T05:29:01.743Z,51.40
2022-11-15T05:30:01.868Z,50.10
2022-11-15T05:31:02.189Z,49.70
2022-11-15T05:32:02.199Z,51.00
2022-11-15T05:33:02.334Z,51.00
2022-11-15T05:34:02.456Z,51.30
2022-11-15T05:35:02.579Z,51.10
2022-11-15T05:36:02.706Z,50.80
2022-11-15T05:37:02.853Z,50.80
2022-11-15T05:38:03.007Z,50.70
2022-11-15T05:39:03.147Z,50.90
2022-11-15T05:40:03.350Z,50.60
2022-11-15T05:41:03.681Z,51.00
2022-11-15T05:42:03.623Z,49.80
2022-11-15T05:43:03.778Z,50.20
2022-11-15T05:44:03.915Z,50.20
2022-11-15T05:45:04.076Z,49.80
2022-11-15T05:46:04.246Z,50.40
2022-11-15T05:47:04.399Z,49.80
2022-11-15T05:48:04.533Z,50.30
2022-11-15T05:49:04.727Z,49.70
2022-11-15T05:50:05.004Z,50.00
2022-11-15T05:51:05.110Z,50.00
2022-11-15T05:52:05.302Z,49.50
2022-11-15T05:53:05.637Z,50.80
2022-11-15T05:54:05.685Z,50.70
2022-11-15T05:55:05.881Z,50.40
2022-11-15T05:56:06.124Z,49.40
2022-11-15T05:57:06.206Z,49.60
2022-11-15T05:58:06.411Z,48.80
2022-11-15T05:59:06.599Z,50.50
2022-11-15T06:00:06.818Z,50.00
2022-11-15T06:01:06.919Z,49.30
2022-11-15T06:02:07.186Z,50.10
2022-11-15T06:03:07.278Z,49.40
2022-11-15T06:04:07.462Z,48.50
2022-11-15T06:05:07.653Z,48.80
2022-11-15T06:06:11.113Z,48.80
2022-11-15T06:07:09.071Z,48.70
2022-11-15T06:08:08.142Z,49.00
2022-11-15T06:09:08.337Z,49.10
2022-11-15T06:10:08.544Z,48.90
2022-11-15T06:11:08.744Z,48.20
2022-11-15T06:12:08.939Z,49.50
2022-11-15T06:13:09.151Z,49.40
2022-11-15T06:14:09.312Z,49.60
2022-11-15T06:15:10.338Z,49.70
2022-11-15T06:16:09.619Z,50.80
2022-11-15T06:17:11.480Z,50.40
2022-11-15T06:18:09.857Z,50.90
2022-11-15T06:19:10.014Z,51.10
2022-11-15T06:20:10.207Z,49.50
2022-11-15T06:21:10.354Z,50.00
2022-11-15T06:22:10.528Z,50.70
2022-11-15T06:23:10.714Z,50.10
2022-11-15T06:24:10.859Z,49.60
2022-11-15T06:25:11.028Z,49.20
2022-11-15T06:26:11.173Z,49.00
2022-11-15T06:27:11.323Z,48.40
2022-11-15T06:28:11.459Z,48.60
2022-11-15T06:29:11.625Z,49.30
2022-11-15T06:30:11.768Z,49.70
2022-11-15T06:31:11.914Z,48.80
2022-11-15T06:32:12.058Z,49.70
2022-11-15T06:33:12.216Z,48.50
2022-11-15T06:34:12.361Z,49.40
2022-11-15T06:35:12.557Z,49.10
2022-11-15T06:36:17.289Z,49.10
2022-11-15T06:37:13.911Z,47.70
2022-11-15T06:38:13.047Z,48.90
2022-11-15T06:39:13.203Z,49.20
2022-11-15T06:40:13.371Z,48.60
2022-11-15T06:41:13.612Z,49.00
2022-11-15T06:42:13.655Z,48.80
2022-11-15T06:43:13.807Z,49.10
2022-11-15T06:44:13.973Z,49.30
2022-11-15T06:45:14.168Z,49.40
2022-11-15T06:46:14.380Z,50.00
2022-11-15T06:47:14.522Z,50.50
2022-11-15T06:48:14.677Z,50.20
2022-11-15T06:49:14.852Z,49.60
2022-11-15T06:50:15.015Z,49.00
2022-11-15T06:51:15.165Z,50.80
2022-11-15T06:52:15.319Z,49.50
2022-11-15T06:53:15.464Z,48.50
2022-11-15T06:54:15.687Z,49.50
2022-11-15T06:55:15.734Z,49.40
2022-11-15T06:56:15.879Z,48.80
2022-11-15T06:57:16.042Z,49.10
2022-11-15T06:58:16.182Z,48.60
2022-11-15T06:59:16.323Z,49.50
2022-11-15T07:00:18.809Z,48.20
2022-11-15T07:01:16.666Z,49.30
2022-11-15T07:02:16.825Z,48.90
2022-11-15T07:03:16.968Z,49.80
2022-11-15T07:04:17.183Z,49.30
2022-11-15T07:05:18.803Z,47.80
2022-11-15T07:06:17.485Z,49.80
2022-11-15T07:07:17.710Z,48.40
2022-11-15T07:08:17.709Z,48.60
2022-11-15T07:09:17.868Z,48.90
2022-11-15T07:10:18.033Z,48.30
2022-11-15T07:11:18.150Z,50.10
2022-11-15T07:12:18.271Z,48.30
2022-11-15T07:13:18.407Z,48.90
2022-11-15T07:14:18.541Z,48.90
2022-11-15T07:15:18.680Z,48.40
2022-11-15T07:16:18.808Z,48.70
2022-11-15T07:17:18.924Z,49.00
2022-11-15T07:18:19.038Z,47.90
2022-11-15T07:19:19.168Z,48.10
2022-11-15T07:20:19.303Z,47.60
2022-11-15T07:21:22.354Z,45.20
2022-11-15T07:22:20.607Z,46.60
2022-11-15T07:23:19.724Z,45.80
2022-11-15T07:24:19.854Z,45.00
2022-11-15T07:25:19.966Z,44.60
2022-11-15T07:26:20.076Z,45.30
2022-11-15T07:27:20.214Z,44.00
2022-11-15T07:28:20.406Z,43.00
2022-11-15T07:29:20.571Z,42.20
2022-11-15T07:30:20.777Z,41.30
2022-11-15T07:31:20.845Z,41.20
2022-11-15T07:32:21.015Z,40.90
2022-11-15T07:33:21.191Z,41.30
2022-11-15T07:34:22.335Z,40.20
2022-11-15T07:35:21.544Z,38.80
2022-11-15T07:36:21.594Z,39.10
2022-11-15T07:37:21.768Z,38.60
2022-11-15T07:38:21.921Z,39.70
2022-11-15T07:39:22.087Z,37.10
2022-11-15T07:40:22.234Z,37.00
2022-11-15T07:41:22.378Z,37.20
2022-11-15T07:42:22.591Z,37.40
2022-11-15T07:43:22.678Z,36.20
2022-11-15T07:44:22.818Z,34.70
2022-11-15T07:45:22.964Z,35.50
2022-11-15T07:46:23.126Z,35.90
2022-11-15T07:47:23.258Z,35.10
2022-11-15T07:48:23.390Z,35.30
2022-11-15T07:49:23.582Z,33.50
2022-11-15T07:50:23.832Z,34.20
2022-11-15T07:51:23.742Z,33.10
2022-11-15T07:52:23.872Z,33.80
2022-11-15T07:53:24.020Z,33.20
2022-11-15T07:54:24.151Z,34.10
2022-11-15T07:55:24.264Z,33.00
2022-11-15T07:56:24.381Z,32.00
2022-11-15T07:57:24.499Z,32.10
2022-11-15T07:58:24.603Z,32.70
2022-11-15T07:59:24.711Z,30.90
2022-11-15T08:00:24.835Z,32.10
2022-11-15T08:01:24.990Z,32.20
2022-11-15T08:02:30.123Z,30.90
2022-11-15T08:03:26.149Z,29.70
2022-11-15T08:04:25.261Z,30.20
2022-11-15T08:05:25.388Z,30.90
2022-11-15T08:06:25.500Z,29.60
2022-11-15T08:07:25.725Z,30.80
2022-11-15T08:08:25.661Z,30.50
2022-11-15T08:09:25.775Z,30.30
2022-11-15T08:10:25.821Z,30.90
2022-11-15T08:11:25.821Z,36.60
2022-11-15T08:12:25.945Z,30.10
2022-11-15T08:13:26.020Z,29.70
2022-11-15T08:14:26.118Z,30.70
2022-11-15T08:15:26.229Z,39.00
2022-11-15T08:16:26.324Z,33.50
2022-11-15T08:17:26.423Z,38.00
2022-11-15T08:18:26.511Z,36.10
2022-11-15T08:19:26.612Z,30.10
2022-11-15T08:20:26.709Z,30.10
2022-11-15T08:21:26.852Z,28.80
2022-11-15T08:22:26.876Z,31.90
2022-11-15T08:23:26.957Z,40.40
2022-11-15T08:24:27.020Z,32.50
2022-11-15T08:25:27.108Z,29.20
2022-11-15T08:26:27.181Z,29.10
2022-11-15T08:27:27.306Z,35.50
2022-11-15T08:28:27.360Z,28.10
2022-11-15T08:29:27.452Z,31.70
2022-11-15T08:30:27.579Z,29.60
2022-11-15T08:31:27.656Z,30.70
2022-11-15T08:32:27.735Z,27.00
2022-11-15T08:33:27.874Z,28.80
2022-11-15T08:34:27.867Z,31.40
2022-11-15T08:35:29.393Z,29.20
2022-11-15T08:36:32.110Z,28.70
2022-11-15T08:37:29.030Z,30.20
2022-11-15T08:38:28.104Z,34.70
2022-11-15T08:39:28.167Z,36.60
2022-11-15T08:40:28.250Z,27.20
2022-11-15T08:41:28.334Z,28.70
2022-11-15T08:42:28.405Z,31.60
2022-11-15T08:43:28.917Z,27.70
2022-11-15T08:44:28.559Z,32.40
2022-11-15T08:45:28.625Z,26.10
2022-11-15T08:46:28.681Z,26.50
2022-11-15T08:47:28.761Z,28.00
2022-11-15T08:48:29.058Z,29.20
2022-11-15T08:49:28.866Z,28.10
2022-11-15T08:50:28.951Z,24.00
2022-11-15T08:51:29.048Z,27.10
2022-11-15T08:52:29.115Z,28.60
2022-11-15T08:53:29.391Z,24.00
2022-11-15T08:54:29.207Z,23.60
2022-11-15T08:55:29.280Z,23.60
2022-11-15T08:56:29.336Z,24.00
2022-11-15T08:57:29.415Z,23.50
2022-11-15T08:58:29.765Z,24.40
2022-11-15T08:59:29.471Z,35.70
2022-11-15T09:00:29.534Z,46.70
2022-11-15T09:01:29.644Z,25.70
2022-11-15T09:02:29.573Z,43.90
2022-11-15T09:03:29.626Z,25.70
2022-11-15T09:04:29.691Z,23.00
2022-11-15T09:05:29.744Z,24.90
2022-11-15T09:06:29.784Z,23.50
2022-11-15T09:07:29.923Z,21.90
2022-11-15T09:08:52.199Z,20.80
2022-11-15T09:10:42.955Z,21.70
2022-11-15T09:11:43.112Z,21.50
2022-11-15T09:12:43.286Z,21.10
2022-11-15T09:13:43.430Z,19.70
2022-11-15T09:14:43.590Z,21.70
2022-11-15T09:15:43.756Z,20.90
2022-11-15T09:16:43.922Z,20.00
2022-11-15T09:17:44.065Z,21.70
2022-11-15T09:18:44.225Z,20.10
2022-11-15T09:19:44.362Z,20.70
2022-11-15T09:20:44.536Z,22.80
2022-11-15T09:21:44.682Z,20.20
2022-11-15T09:22:44.833Z,20.80
2022-11-15T09:23:44.975Z,20.40
2022-11-15T09:24:45.132Z,20.80
2022-11-15T09:25:45.291Z,19.70
2022-11-15T09:26:45.445Z,19.70
2022-11-15T09:27:45.592Z,18.00
2022-11-15T09:28:45.747Z,18.80
2022-11-15T09:29:45.900Z,21.10
2022-11-15T09:30:46.069Z,18.00
2022-11-15T09:31:46.212Z,18.20
2022-11-15T09:32:46.362Z,17.50
2022-11-15T09:33:46.531Z,20.50
2022-11-15T09:34:46.683Z,20.20
2022-11-15T09:35:46.865Z,19.20
2022-11-15T09:36:46.960Z,18.80
2022-11-15T09:37:49.125Z,17.90
2022-11-15T09:38:48.209Z,18.80
2022-11-15T09:39:47.362Z,16.40
2022-11-15T09:40:47.547Z,16.00
2022-11-15T09:41:47.703Z,19.50
2022-11-15T09:42:47.855Z,15.20
2022-11-15T09:43:48.003Z,16.10
2022-11-15T09:44:48.150Z,15.50
2022-11-15T09:45:48.312Z,15.30
2022-11-15T09:46:48.461Z,18.30
2022-11-15T09:47:48.613Z,15.20
2022-11-15T09:48:48.755Z,19.10
2022-11-15T09:49:51.644Z,16.90
2022-11-15T09:50:50.062Z,16.00
2022-11-15T09:51:49.237Z,15.00
2022-11-15T09:52:49.391Z,15.10
2022-11-15T09:54:53.770Z,16.00
2022-11-15T09:55:49.721Z,15.80
2022-11-15T09:56:49.886Z,15.90
2022-11-15T09:57:50.061Z,16.20
2022-11-15T09:58:50.211Z,15.50
2022-11-15T09:59:50.363Z,15.30
2022-11-15T10:00:50.595Z,16.00
2022-11-15T10:01:50.736Z,15.10
2022-11-15T10:02:50.793Z,15.40
2022-11-15T10:03:50.964Z,15.50
2022-11-15T10:04:51.112Z,16.00
2022-11-15T10:05:51.327Z,15.50
2022-11-15T10:06:51.429Z,15.20
2022-11-15T10:07:51.577Z,14.50
2022-11-15T10:08:51.745Z,14.40
2022-11-15T10:09:51.899Z,14.40
2022-11-15T10:11:05.047Z,14.80
2022-11-15T10:11:53.202Z,15.60
2022-11-15T10:12:52.330Z,14.50
2022-11-15T10:13:52.467Z,16.60
2022-11-15T10:14:54.583Z,15.10
2022-11-15T10:15:52.712Z,14.70
2022-11-15T10:16:52.852Z,15.00
2022-11-15T10:17:52.979Z,15.90
2022-11-15T10:18:53.113Z,15.00
2022-11-15T10:19:53.256Z,14.20
2022-11-15T10:20:53.407Z,14.00
2022-11-15T10:21:53.540Z,14.50
2022-11-15T10:22:53.722Z,14.40
2022-11-15T10:23:53.844Z,14.10
2022-11-15T10:24:53.982Z,14.40
2022-11-15T10:25:54.147Z,13.70
2022-11-15T10:26:54.248Z,15.10
2022-11-15T10:27:54.395Z,14.90
2022-11-15T10:28:54.543Z,14.80
2022-11-15T10:29:54.683Z,15.10
2022-11-15T10:30:54.817Z,14.40
2022-11-15T10:31:54.944Z,13.90
2022-11-15T10:32:55.095Z,14.60
2022-11-15T10:33:55.214Z,15.10
2022-11-15T10:34:55.344Z,14.40
2022-11-15T10:35:55.471Z,14.30
2022-11-15T10:36:55.547Z,15.00
2022-11-15T10:37:55.684Z,14.50
2022-11-15T10:38:55.811Z,14.10
2022-11-15T10:39:55.935Z,14.30
2022-11-15T10:40:56.063Z,14.70
2022-11-15T10:41:56.187Z,15.10
2022-11-15T10:42:56.321Z,14.30
2022-11-15T10:43:56.446Z,15.70
2022-11-15T10:44:56.568Z,14.00
2022-11-15T10:45:56.691Z,17.10
2022-11-15T10:46:56.802Z,14.40
2022-11-15T10:47:56.929Z,13.90
2022-11-15T10:48:57.066Z,13.80
2022-11-15T10:49:57.182Z,13.70
2022-11-15T10:50:57.309Z,13.90
2022-11-15T10:51:57.430Z,13.90
2022-11-15T10:52:57.565Z,14.60
2022-11-15T10:53:57.674Z,14.30
2022-11-15T10:54:57.819Z,14.40
2022-11-15T10:55:57.922Z,14.30
2022-11-15T10:56:58.060Z,14.10
2022-11-15T10:57:58.194Z,14.30
2022-11-15T10:58:58.325Z,14.50
2022-11-15T10:59:58.429Z,14.70
2022-11-15T11:00:58.606Z,14.70
2022-11-15T11:01:58.624Z,14.40
2022-11-15T11:02:58.760Z,15.60
2022-11-15T11:03:58.876Z,14.90
2022-11-15T11:04:58.993Z,14.30
2022-11-15T11:05:59.130Z,15.00
2022-11-15T11:06:59.311Z,13.90
2022-11-15T11:07:59.321Z,14.80
2022-11-15T11:08:59.433Z,14.00
2022-11-15T11:09:59.557Z,14.60
2022-11-15T11:11:03.014Z,15.10
2022-11-15T11:11:59.736Z,14.60
2022-11-15T11:12:59.872Z,14.30
2022-11-15T11:13:59.999Z,14.00
2022-11-15T11:15:00.111Z,14.80
2022-11-15T11:16:00.224Z,14.70
2022-11-15T11:17:00.340Z,14.70
2022-11-15T11:18:00.467Z,14.50
2022-11-15T11:19:00.590Z,14.10
2022-11-15T11:20:00.707Z,14.60
2022-11-15T11:21:00.834Z,15.30
2022-11-15T11:22:00.973Z,14.60
2022-11-15T11:23:01.097Z,14.70
2022-11-15T11:24:01.210Z,14.90
2022-11-15T11:25:01.327Z,14.30
2022-11-15T11:26:01.466Z,13.70
2022-11-15T11:27:01.582Z,13.70
2022-11-15T11:28:01.722Z,13.70
2022-11-15T11:29:01.859Z,13.20
2022-11-15T11:30:01.969Z,13.50
2022-11-15T11:31:02.113Z,13.80
2022-11-15T11:32:02.229Z,13.60
2022-11-15T11:33:02.357Z,12.90
2022-11-15T11:34:02.474Z,12.70
2022-11-15T11:35:02.588Z,12.70
2022-11-15T11:36:02.708Z,13.80
2022-11-15T11:37:02.827Z,12.70
2022-11-15T11:38:02.994Z,13.10
2022-11-15T11:39:03.036Z,13.30
2022-11-15T11:40:09.161Z,12.70
2022-11-15T11:41:04.236Z,16.60
2022-11-15T11:42:03.346Z,14.50
2022-11-15T11:43:03.490Z,14.80
2022-11-15T11:44:03.603Z,14.00
2022-11-15T11:45:03.712Z,13.20
2022-11-15T11:46:03.847Z,13.50
2022-11-15T11:47:03.953Z,13.30
2022-11-15T11:48:04.084Z,13.30
2022-11-15T11:49:04.205Z,13.90
2022-11-15T11:50:04.353Z,13.60
2022-11-15T11:51:04.469Z,13.30
2022-11-15T11:52:04.586Z,12.90
2022-11-15T11:53:04.703Z,13.20
2022-11-15T11:54:04.829Z,13.00
2022-11-15T11:55:05.036Z,12.90
2022-11-15T11:56:05.018Z,12.40
2022-11-15T11:57:05.137Z,12.40
2022-11-15T11:58:05.290Z,12.40
2022-11-15T11:59:05.409Z,12.70
2022-11-15T12:00:05.527Z,13.20
2022-11-15T12:01:11.415Z,13.40
2022-11-15T12:02:06.767Z,13.80
2022-11-15T12:03:05.989Z,12.70
2022-11-15T12:04:06.003Z,13.90
2022-11-15T12:05:06.122Z,12.50
2022-11-15T12:06:06.253Z,11.90
2022-11-15T12:07:06.422Z,12.20
2022-11-15T12:08:06.541Z,12.20
2022-11-15T12:09:06.646Z,12.30
2022-11-15T12:10:06.770Z,12.30
2022-11-15T12:11:06.880Z,12.00
2022-11-15T12:12:07.001Z,12.00
2022-11-15T12:13:07.126Z,11.80
2022-11-15T12:14:07.252Z,12.20
2022-11-15T12:15:07.378Z,12.30
2022-11-15T12:16:10.300Z,11.70
2022-11-15T12:17:07.580Z,11.60
2022-11-15T12:18:07.713Z,12.30
2022-11-15T12:19:07.827Z,12.00
2022-11-15T12:20:07.947Z,11.90
2022-11-15T12:21:08.097Z,11.20
2022-11-15T12:22:08.248Z,10.90
2022-11-15T12:23:08.372Z,11.00
2022-11-15T12:24:08.551Z,11.00
2022-11-15T12:25:08.561Z,10.60
2022-11-15T12:26:08.688Z,11.10
2022-11-15T12:27:08.782Z,11.00
2022-11-15T12:28:08.901Z,10.60
2022-11-15T12:29:09.407Z,10.20
2022-11-15T12:30:09.119Z,10.20
2022-11-15T12:31:09.290Z,10.20
2022-11-15T12:32:09.301Z,9.90
2022-11-15T12:33:09.437Z,10.10
2022-11-15T12:34:09.570Z,10.70
2022-11-15T12:35:09.714Z,10.10
2022-11-15T12:36:09.811Z,10.30
2022-11-15T12:37:09.928Z,10.60
2022-11-15T12:38:10.041Z,10.30
2022-11-15T12:39:10.158Z,10.40
2022-11-15T12:40:10.274Z,10.70
2022-11-15T12:41:10.397Z,10.50
2022-11-15T12:42:10.513Z,10.10
2022-11-15T12:43:10.654Z,10.60
2022-11-15T12:44:10.764Z,9.90
2022-11-15T12:45:10.881Z,11.00
2022-11-15T12:46:11.006Z,10.70
2022-11-15T12:47:11.122Z,10.90
2022-11-15T12:48:11.263Z,11.40
2022-11-15T12:49:11.371Z,10.50
2022-11-15T12:50:11.591Z,11.00
2022-11-15T12:51:11.603Z,11.40
2022-11-15T12:52:11.725Z,11.10
2022-11-15T12:53:11.862Z,11.20
2022-11-15T12:54:11.976Z,11.30
2022-11-15T12:55:12.087Z,10.70
2022-11-15T12:56:12.216Z,11.50
2022-11-15T12:57:12.328Z,10.80